createdAt,value
2023-12-30T00:00:19.110Z,28.52
2023-12-30T00:01:16.865Z,28.59
2023-12-30T00:02:16.755Z,28.55
2023-12-30T00:03:16.776Z,28.58
2023-12-30T00:04:16.768Z,28.58
2023-12-30T00:05:16.747Z,28.59
2023-12-30T00:06:16.836Z,28.58
2023-12-30T00:07:16.751Z,28.61
2023-12-30T00:08:16.743Z,28.58
2023-12-30T00:09:16.729Z,28.61
2023-12-30T00:10:16.753Z,28.58
2023-12-30T00:11:16.733Z,28.62
2023-12-30T00:12:16.726Z,28.56
2023-12-30T00:13:16.743Z,28.58
2023-12-30T00:14:16.812Z,28.61
2023-12-30T00:15:16.738Z,28.58
2023-12-30T00:16:16.735Z,28.64
2023-12-30T00:17:16.726Z,28.61
2023-12-30T00:18:16.865Z,28.62
2023-12-30T00:19:16.843Z,28.56
2023-12-30T00:20:16.745Z,28.59
2023-12-30T00:21:16.735Z,28.61
2023-12-30T00:22:37.552Z,28.65
2023-12-30T00:23:43.187Z,28.63
2023-12-30T00:24:38.542Z,28.62
2023-12-30T00:25:37.526Z,28.63
2023-12-30T00:26:37.531Z,28.59
2023-12-30T00:27:37.524Z,28.61
2023-12-30T00:28:37.534Z,28.59
2023-12-30T00:29:37.531Z,28.59
2023-12-30T00:30:37.555Z,28.55
2023-12-30T00:31:37.527Z,28.59
2023-12-30T00:32:37.615Z,28.56
2023-12-30T00:33:37.828Z,28.61
2023-12-30T00:34:37.747Z,28.59
2023-12-30T00:35:37.752Z,28.59
2023-12-30T00:36:37.789Z,28.57
2023-12-30T00:37:37.843Z,28.58
2023-12-30T00:38:37.906Z,28.54
2023-12-30T00:39:37.935Z,28.56
2023-12-30T00:40:38.002Z,28.54
2023-12-30T00:41:38.030Z,28.56
2023-12-30T00:42:38.086Z,28.55
2023-12-30T00:43:38.152Z,28.56
2023-12-30T00:44:38.181Z,28.51
2023-12-30T00:45:38.225Z,28.55
2023-12-30T00:46:38.314Z,28.55
2023-12-30T00:47:38.347Z,28.55
2023-12-30T00:48:38.386Z,28.54
2023-12-30T00:49:38.442Z,28.51
2023-12-30T00:50:38.480Z,28.56
2023-12-30T00:51:38.529Z,28.59
2023-12-30T00:52:38.582Z,28.58
2023-12-30T00:53:38.623Z,28.55
2023-12-30T00:54:44.739Z,28.51
2023-12-30T00:55:39.671Z,28.55
2023-12-30T00:56:38.709Z,28.56
2023-12-30T00:57:38.680Z,28.54
2023-12-30T00:58:38.679Z,28.58
2023-12-30T00:59:38.701Z,28.56
2023-12-30T01:00:38.700Z,28.56
2023-12-30T01:01:38.780Z,28.59
2023-12-30T01:02:38.697Z,28.55
2023-12-30T01:03:38.722Z,28.58
2023-12-30T01:04:38.781Z,28.55
2023-12-30T01:05:38.728Z,28.50
2023-12-30T01:06:38.732Z,28.61
2023-12-30T01:07:38.778Z,28.58
2023-12-30T01:08:38.955Z,28.56
2023-12-30T01:09:38.903Z,28.55
2023-12-30T01:10:38.956Z,28.58
2023-12-30T01:11:38.964Z,28.59
2023-12-30T01:12:39.034Z,28.56
2023-12-30T01:13:39.100Z,28.56
2023-12-30T01:14:39.133Z,28.56
2023-12-30T01:15:39.193Z,28.55
2023-12-30T01:16:39.250Z,28.60
2023-12-30T01:17:39.441Z,28.53
2023-12-30T01:18:39.504Z,28.59
2023-12-30T01:19:39.412Z,28.53
2023-12-30T01:20:39.449Z,28.56
2023-12-30T01:21:39.513Z,28.55
2023-12-30T01:22:39.579Z,28.56
2023-12-30T01:23:39.614Z,28.56
2023-12-30T01:24:39.661Z,28.58
2023-12-30T01:25:39.790Z,28.59
2023-12-30T01:26:39.754Z,28.61
2023-12-30T01:27:39.814Z,28.58
2023-12-30T01:28:39.855Z,28.55
2023-12-30T01:29:39.913Z,28.62
2023-12-30T01:30:40.085Z,28.55
2023-12-30T01:31:40.082Z,28.58
2023-12-30T01:32:40.118Z,28.59
2023-12-30T01:33:40.258Z,28.56
2023-12-30T01:34:40.305Z,28.58
2023-12-30T01:35:40.298Z,28.55
2023-12-30T01:36:40.345Z,28.55
2023-12-30T01:37:40.438Z,28.54
2023-12-30T01:38:40.487Z,28.53
2023-12-30T01:39:40.531Z,28.50
2023-12-30T01:40:40.587Z,28.56
2023-12-30T01:41:40.664Z,28.56
2023-12-30T01:42:40.725Z,28.53
2023-12-30T01:43:40.816Z,28.52
2023-12-30T01:44:40.861Z,28.53
2023-12-30T01:45:40.903Z,28.56
2023-12-30T01:46:40.962Z,28.54
2023-12-30T01:47:41.154Z,28.58
2023-12-30T01:48:41.229Z,28.52
2023-12-30T01:49:41.222Z,28.55
2023-12-30T01:50:41.202Z,28.55
2023-12-30T01:51:41.261Z,28.53
2023-12-30T01:52:41.331Z,28.54
2023-12-30T01:53:41.419Z,28.53
2023-12-30T01:54:41.463Z,28.59
2023-12-30T01:55:41.531Z,28.56
2023-12-30T01:56:41.567Z,28.52
2023-12-30T01:57:41.636Z,28.50
2023-12-30T01:58:41.701Z,28.53
2023-12-30T01:59:41.769Z,28.55
2023-12-30T02:00:41.833Z,28.53
2023-12-30T02:01:42.069Z,28.58
2023-12-30T02:02:41.985Z,28.56
2023-12-30T02:03:42.137Z,28.52
2023-12-30T02:04:42.142Z,28.54
2023-12-30T02:05:42.197Z,28.54
2023-12-30T02:06:42.224Z,28.52
2023-12-30T02:07:42.355Z,28.46
2023-12-30T02:08:42.337Z,28.52
2023-12-30T02:09:42.405Z,28.50
2023-12-30T02:10:42.467Z,28.54
2023-12-30T02:11:42.558Z,28.54
2023-12-30T02:12:42.607Z,28.53
2023-12-30T02:13:42.704Z,28.50
2023-12-30T02:14:42.770Z,28.53
2023-12-30T02:15:42.797Z,28.54
2023-12-30T02:16:42.853Z,28.52
2023-12-30T02:17:43.048Z,28.50
2023-12-30T02:18:43.102Z,28.58
2023-12-30T02:19:43.086Z,28.52
2023-12-30T02:20:43.113Z,28.55
2023-12-30T02:21:43.179Z,28.55
2023-12-30T02:22:43.256Z,28.50
2023-12-30T02:23:43.319Z,28.52
2023-12-30T02:24:43.677Z,28.56
2023-12-30T02:25:43.496Z,28.55
2023-12-30T02:26:43.503Z,28.53
2023-12-30T02:27:43.562Z,28.52
2023-12-30T02:28:43.632Z,28.52
2023-12-30T02:29:43.708Z,28.57
2023-12-30T02:30:43.794Z,28.56
2023-12-30T02:31:43.891Z,28.56
2023-12-30T02:32:43.919Z,28.55
2023-12-30T02:33:43.980Z,28.53
2023-12-30T02:34:44.043Z,28.59
2023-12-30T02:35:44.078Z,28.56
2023-12-30T02:36:44.150Z,28.58
2023-12-30T02:37:44.202Z,28.56
2023-12-30T02:38:44.292Z,28.56
2023-12-30T02:39:44.686Z,28.52
2023-12-30T02:40:44.444Z,28.62
2023-12-30T02:41:44.495Z,28.56
2023-12-30T02:42:44.528Z,28.58
2023-12-30T02:43:44.594Z,28.53
2023-12-30T02:44:44.690Z,28.58
2023-12-30T02:45:44.800Z,28.55
2023-12-30T02:46:44.791Z,28.56
2023-12-30T02:47:44.893Z,28.59
2023-12-30T02:48:44.923Z,28.58
2023-12-30T02:49:45.036Z,28.50
2023-12-30T02:50:45.014Z,28.55
2023-12-30T02:51:45.078Z,28.55
2023-12-30T02:52:45.140Z,28.53
2023-12-30T02:53:45.216Z,28.58
2023-12-30T02:54:45.317Z,28.53
2023-12-30T02:55:45.379Z,28.53
2023-12-30T02:56:45.351Z,28.56
2023-12-30T02:57:49.134Z,28.55
2023-12-30T02:58:45.392Z,28.53
2023-12-30T02:59:45.394Z,28.55
2023-12-30T03:00:45.412Z,28.53
2023-12-30T03:01:45.459Z,28.53
2023-12-30T03:02:45.423Z,28.50
2023-12-30T03:03:45.419Z,28.56
2023-12-30T03:04:45.530Z,28.53
2023-12-30T03:05:45.410Z,28.58
2023-12-30T03:06:45.395Z,28.55
2023-12-30T03:07:45.391Z,28.53
2023-12-30T03:08:45.418Z,28.56
2023-12-30T03:09:45.402Z,28.48
2023-12-30T03:10:45.475Z,28.55
2023-12-30T03:11:45.500Z,28.55
2023-12-30T03:12:45.554Z,28.53
2023-12-30T03:13:45.665Z,28.52
2023-12-30T03:14:45.697Z,28.61
2023-12-30T03:15:45.756Z,28.56
2023-12-30T03:16:45.902Z,28.56
2023-12-30T03:17:45.933Z,28.50
2023-12-30T03:18:46.178Z,28.52
2023-12-30T03:19:46.086Z,28.53
2023-12-30T03:20:46.088Z,28.48
2023-12-30T03:21:46.169Z,28.55
2023-12-30T03:22:46.343Z,28.53
2023-12-30T03:23:46.297Z,28.55
2023-12-30T03:24:46.366Z,28.54
2023-12-30T03:25:46.425Z,28.55
2023-12-30T03:26:46.495Z,28.53
2023-12-30T03:27:46.572Z,28.56
2023-12-30T03:28:46.622Z,28.56
2023-12-30T03:29:46.751Z,28.56
2023-12-30T03:30:46.770Z,28.53
2023-12-30T03:31:46.943Z,28.52
2023-12-30T03:32:46.909Z,28.55
2023-12-30T03:33:46.989Z,28.52
2023-12-30T03:34:47.064Z,28.54
2023-12-30T03:35:47.075Z,28.50
2023-12-30T03:36:47.140Z,28.52
2023-12-30T03:37:47.216Z,28.56
2023-12-30T03:38:47.276Z,28.56
2023-12-30T03:39:47.363Z,28.59
2023-12-30T03:40:47.422Z,28.59
2023-12-30T03:41:47.467Z,28.56
2023-12-30T03:42:47.539Z,28.53
2023-12-30T03:43:47.599Z,28.57
2023-12-30T03:44:47.661Z,28.58
2023-12-30T03:45:47.711Z,28.58
2023-12-30T03:46:47.780Z,28.54
2023-12-30T03:47:47.883Z,28.53
2023-12-30T03:48:47.940Z,28.55
2023-12-30T03:49:48.192Z,28.55
2023-12-30T03:50:48.048Z,28.57
2023-12-30T03:51:48.170Z,28.53
2023-12-30T03:52:48.178Z,28.59
2023-12-30T03:53:48.240Z,28.53
2023-12-30T03:54:48.293Z,28.53
2023-12-30T03:55:49.194Z,28.58
2023-12-30T03:56:48.426Z,28.53
2023-12-30T03:57:48.542Z,28.52
2023-12-30T03:58:48.573Z,28.50
2023-12-30T03:59:48.639Z,28.53
2023-12-30T04:00:48.778Z,28.50
2023-12-30T04:01:48.743Z,28.55
2023-12-30T04:02:48.869Z,28.52
2023-12-30T04:03:48.952Z,28.50
2023-12-30T04:04:48.959Z,28.50
2023-12-30T04:05:49.009Z,28.55
2023-12-30T04:06:49.094Z,28.56
2023-12-30T04:07:49.107Z,28.53
2023-12-30T04:08:49.168Z,28.50
2023-12-30T04:09:49.266Z,28.56
2023-12-30T04:10:49.312Z,28.53
2023-12-30T04:11:49.390Z,28.50
2023-12-30T04:12:49.469Z,28.52
2023-12-30T04:13:49.586Z,28.52
2023-12-30T04:14:49.583Z,28.51
2023-12-30T04:15:49.676Z,28.47
2023-12-30T04:16:49.715Z,28.50
2023-12-30T04:17:49.796Z,28.53
2023-12-30T04:18:49.918Z,28.58
2023-12-30T04:19:49.976Z,28.53
2023-12-30T04:20:49.955Z,28.53
2023-12-30T04:21:50.054Z,28.52
2023-12-30T04:22:50.066Z,28.59
2023-12-30T04:23:50.138Z,28.52
2023-12-30T04:24:50.233Z,28.58
2023-12-30T04:25:50.275Z,28.52
2023-12-30T04:26:50.370Z,28.56
2023-12-30T04:27:50.508Z,28.55
2023-12-30T04:28:50.477Z,28.53
2023-12-30T04:29:50.540Z,28.63
2023-12-30T04:30:57.813Z,28.64
2023-12-30T04:32:05.091Z,28.63
2023-12-30T04:33:05.386Z,28.60
2023-12-30T04:34:05.144Z,28.63
2023-12-30T04:35:05.110Z,28.63
2023-12-30T04:36:05.073Z,28.57
2023-12-30T04:37:05.141Z,28.60
2023-12-30T04:38:05.132Z,28.67
2023-12-30T04:39:05.077Z,28.59
2023-12-30T04:40:05.108Z,28.59
2023-12-30T04:41:05.111Z,28.59
2023-12-30T04:42:05.081Z,28.58
2023-12-30T04:43:05.434Z,28.56
2023-12-30T04:44:05.093Z,28.53
2023-12-30T04:45:05.113Z,28.55
2023-12-30T04:46:05.116Z,28.53
2023-12-30T04:47:05.090Z,28.55
2023-12-30T04:48:05.138Z,28.60
2023-12-30T04:49:05.230Z,28.58
2023-12-30T04:50:05.113Z,28.53
2023-12-30T04:51:05.101Z,28.52
2023-12-30T04:52:05.128Z,28.52
2023-12-30T04:53:05.310Z,28.50
2023-12-30T04:54:05.099Z,28.54
2023-12-30T04:55:05.141Z,28.55
2023-12-30T04:56:05.186Z,28.52
2023-12-30T04:57:05.104Z,28.53
2023-12-30T04:58:05.165Z,28.56
2023-12-30T04:59:05.177Z,28.53
2023-12-30T05:00:05.238Z,28.52
2023-12-30T05:01:05.361Z,28.52
2023-12-30T05:02:05.410Z,28.52
2023-12-30T05:03:05.792Z,28.53
2023-12-30T05:04:05.514Z,28.52
2023-12-30T05:05:05.575Z,28.56
2023-12-30T05:06:05.619Z,28.55
2023-12-30T05:07:05.696Z,28.56
2023-12-30T05:08:06.962Z,28.50
2023-12-30T05:09:05.827Z,28.53
2023-12-30T05:10:06.030Z,28.56
2023-12-30T05:11:05.935Z,28.56
2023-12-30T05:12:06.021Z,28.50
2023-12-30T05:13:06.410Z,28.53
2023-12-30T05:14:06.205Z,28.56
2023-12-30T05:15:06.196Z,28.55
2023-12-30T05:16:06.308Z,28.58
2023-12-30T05:17:06.354Z,28.53
2023-12-30T05:18:06.447Z,28.58
2023-12-30T05:19:06.562Z,28.57
2023-12-30T05:20:06.526Z,28.55
2023-12-30T05:21:06.596Z,28.53
2023-12-30T05:22:06.693Z,28.53
2023-12-30T05:23:06.752Z,28.55
2023-12-30T05:24:06.830Z,28.55
2023-12-30T05:25:06.975Z,28.60
2023-12-30T05:26:06.924Z,28.56
2023-12-30T05:27:06.968Z,28.56
2023-12-30T05:28:07.130Z,28.56
2023-12-30T05:29:07.113Z,28.55
2023-12-30T05:30:07.213Z,28.54
2023-12-30T05:31:07.339Z,28.55
2023-12-30T05:32:07.336Z,28.60
2023-12-30T05:33:07.792Z,28.56
2023-12-30T05:34:07.467Z,28.57
2023-12-30T05:35:07.586Z,28.59
2023-12-30T05:36:07.565Z,28.60
2023-12-30T05:37:07.692Z,28.52
2023-12-30T05:38:07.688Z,28.54
2023-12-30T05:39:07.762Z,28.53
2023-12-30T05:40:08.030Z,28.56
2023-12-30T05:41:07.911Z,28.52
2023-12-30T05:42:07.965Z,28.58
2023-12-30T05:43:08.062Z,28.54
2023-12-30T05:44:08.089Z,28.56
2023-12-30T05:45:08.191Z,28.57
2023-12-30T05:46:08.287Z,28.54
2023-12-30T05:47:08.308Z,28.56
2023-12-30T05:48:08.434Z,28.54
2023-12-30T05:49:08.611Z,28.56
2023-12-30T05:50:08.517Z,28.59
2023-12-30T05:51:08.556Z,28.57
2023-12-30T05:52:08.633Z,28.53
2023-12-30T05:53:08.693Z,28.56
2023-12-30T05:54:08.752Z,28.56
2023-12-30T05:55:08.862Z,28.50
2023-12-30T05:56:08.896Z,28.54
2023-12-30T05:57:08.933Z,28.56
2023-12-30T05:58:09.030Z,28.53
2023-12-30T05:59:09.065Z,28.55
2023-12-30T06:00:09.116Z,28.50
2023-12-30T06:01:09.357Z,28.56
2023-12-30T06:02:09.268Z,28.57
2023-12-30T06:03:09.611Z,28.52
2023-12-30T06:04:09.470Z,28.50
2023-12-30T06:05:09.469Z,28.59
2023-12-30T06:06:09.585Z,28.55
2023-12-30T06:07:09.693Z,28.54
2023-12-30T06:08:09.663Z,28.59
2023-12-30T06:09:09.728Z,28.59
2023-12-30T06:10:09.856Z,28.54
2023-12-30T06:11:09.843Z,28.52
2023-12-30T06:12:09.913Z,28.52
2023-12-30T06:13:09.998Z,28.55
2023-12-30T06:14:10.041Z,28.54
2023-12-30T06:15:10.112Z,28.52
2023-12-30T06:16:10.292Z,28.53
2023-12-30T06:17:10.248Z,28.52
2023-12-30T06:18:10.454Z,28.56
2023-12-30T06:19:11.238Z,28.54
2023-12-30T06:20:10.477Z,28.52
2023-12-30T06:21:10.530Z,28.55
2023-12-30T06:22:10.666Z,28.55
2023-12-30T06:23:10.637Z,28.52
2023-12-30T06:24:10.792Z,28.56
2023-12-30T06:25:10.879Z,28.54
2023-12-30T06:26:10.844Z,28.53
2023-12-30T06:27:10.910Z,28.53
2023-12-30T06:28:11.077Z,28.55
2023-12-30T06:29:11.078Z,28.53
2023-12-30T06:30:11.098Z,28.49
2023-12-30T06:31:11.186Z,28.49
2023-12-30T06:32:11.260Z,28.46
2023-12-30T06:33:11.368Z,28.52
2023-12-30T06:34:11.342Z,28.52
2023-12-30T06:35:11.381Z,28.50
2023-12-30T06:36:11.408Z,28.47
2023-12-30T06:37:11.480Z,28.50
2023-12-30T06:38:11.506Z,28.52
2023-12-30T06:39:11.560Z,28.53
2023-12-30T06:40:11.690Z,28.53
2023-12-30T06:41:11.663Z,28.47
2023-12-30T06:42:11.705Z,28.52
2023-12-30T06:43:11.831Z,28.52
2023-12-30T06:44:11.845Z,28.52
2023-12-30T06:45:11.915Z,28.52
2023-12-30T06:46:12.009Z,28.55
2023-12-30T06:47:12.050Z,28.47
2023-12-30T06:48:12.186Z,28.50
2023-12-30T06:49:12.282Z,28.52
2023-12-30T06:50:12.225Z,28.53
2023-12-30T06:51:12.317Z,28.53
2023-12-30T06:52:12.366Z,28.49
2023-12-30T06:53:12.412Z,28.54
2023-12-30T06:54:12.480Z,28.51
2023-12-30T06:55:18.880Z,28.58
2023-12-30T06:56:13.592Z,28.49
2023-12-30T06:57:12.558Z,28.52
2023-12-30T06:58:12.635Z,28.53
2023-12-30T06:59:12.959Z,28.54
2023-12-30T07:00:12.552Z,28.54
2023-12-30T07:01:12.626Z,28.56
2023-12-30T07:02:12.562Z,28.52
2023-12-30T07:03:12.579Z,28.54
2023-12-30T07:04:12.604Z,28.52
2023-12-30T07:05:12.782Z,28.54
2023-12-30T07:06:12.713Z,28.54
2023-12-30T07:07:12.852Z,28.49
2023-12-30T07:08:12.928Z,28.54
2023-12-30T07:09:12.905Z,28.53
2023-12-30T07:10:13.058Z,28.52
2023-12-30T07:11:13.065Z,28.59
2023-12-30T07:12:13.104Z,28.49
2023-12-30T07:13:13.225Z,28.53
2023-12-30T07:14:13.233Z,28.54
2023-12-30T07:15:13.365Z,28.53
2023-12-30T07:16:13.397Z,28.50
2023-12-30T07:17:13.421Z,28.47
2023-12-30T07:18:13.830Z,28.46
2023-12-30T07:19:13.701Z,28.48
2023-12-30T07:20:13.610Z,28.49
2023-12-30T07:21:13.915Z,28.48
2023-12-30T07:22:13.783Z,28.47
2023-12-30T07:23:13.809Z,28.53
2023-12-30T07:24:13.858Z,28.47
2023-12-30T07:25:14.020Z,28.48
2023-12-30T07:26:13.982Z,28.49
2023-12-30T07:27:14.084Z,28.51
2023-12-30T07:28:14.157Z,28.46
2023-12-30T07:29:14.173Z,28.49
2023-12-30T07:30:14.276Z,28.47
2023-12-30T07:31:14.421Z,28.48
2023-12-30T07:32:14.357Z,28.47
2023-12-30T07:33:14.504Z,28.49
2023-12-30T07:34:14.640Z,28.46
2023-12-30T07:35:14.546Z,28.46
2023-12-30T07:36:14.640Z,28.50
2023-12-30T07:37:14.797Z,28.49
2023-12-30T07:38:14.736Z,28.45
2023-12-30T07:39:14.813Z,28.49
2023-12-30T07:40:14.900Z,28.47
2023-12-30T07:41:14.941Z,28.47
2023-12-30T07:42:15.013Z,28.45
2023-12-30T07:43:15.111Z,28.48
2023-12-30T07:44:15.134Z,28.42
2023-12-30T07:45:15.228Z,28.43
2023-12-30T07:46:15.327Z,28.42
2023-12-30T07:47:15.328Z,28.43
2023-12-30T07:48:15.393Z,28.48
2023-12-30T07:49:15.563Z,28.43
2023-12-30T07:50:15.525Z,28.50
2023-12-30T07:51:15.582Z,28.42
2023-12-30T07:52:15.723Z,28.46
2023-12-30T07:53:15.711Z,28.42
2023-12-30T07:54:15.779Z,28.45
2023-12-30T07:55:15.930Z,28.45
2023-12-30T07:56:15.904Z,28.43
2023-12-30T07:57:15.983Z,28.43
2023-12-30T07:58:16.066Z,28.48
2023-12-30T07:59:16.119Z,28.42
2023-12-30T08:00:16.165Z,28.45
2023-12-30T08:01:16.266Z,28.42
2023-12-30T08:02:16.275Z,28.42
2023-12-30T08:03:16.355Z,28.39
2023-12-30T08:04:16.512Z,28.39
2023-12-30T08:05:16.484Z,28.46
2023-12-30T08:06:16.494Z,28.42
2023-12-30T08:07:16.622Z,28.39
2023-12-30T08:08:16.615Z,28.41
2023-12-30T08:09:16.665Z,28.36
2023-12-30T08:10:16.722Z,28.41
2023-12-30T08:11:16.770Z,28.41
2023-12-30T08:12:16.910Z,28.42
2023-12-30T08:13:16.946Z,28.39
2023-12-30T08:14:16.942Z,28.38
2023-12-30T08:15:17.015Z,28.39
2023-12-30T08:16:17.087Z,28.41
2023-12-30T08:17:17.242Z,28.36
2023-12-30T08:18:17.313Z,28.38
2023-12-30T08:19:17.247Z,28.36
2023-12-30T08:20:17.303Z,28.40
2023-12-30T08:21:17.349Z,28.35
2023-12-30T08:22:17.447Z,28.34
2023-12-30T08:23:17.448Z,28.32
2023-12-30T08:24:17.543Z,28.27
2023-12-30T08:25:17.591Z,28.29
2023-12-30T08:26:17.608Z,28.24
2023-12-30T08:27:17.668Z,28.24
2023-12-30T08:28:17.720Z,28.23
2023-12-30T08:29:17.751Z,28.22
2023-12-30T08:30:17.873Z,28.25
2023-12-30T08:31:17.945Z,28.19
2023-12-30T08:32:17.940Z,28.20
2023-12-30T08:33:18.061Z,28.12
2023-12-30T08:34:18.180Z,28.09
2023-12-30T08:35:18.064Z,28.12
2023-12-30T08:36:18.173Z,28.07
2023-12-30T08:37:18.164Z,28.05
2023-12-30T08:38:18.182Z,28.00
2023-12-30T08:39:18.223Z,27.97
2023-12-30T08:40:18.287Z,27.96
2023-12-30T08:41:18.310Z,27.95
2023-12-30T08:42:18.390Z,27.87
2023-12-30T08:43:18.479Z,27.98
2023-12-30T08:44:18.541Z,27.83
2023-12-30T08:45:18.774Z,27.81
2023-12-30T08:46:18.634Z,27.87
2023-12-30T08:47:18.659Z,27.86
2023-12-30T08:48:18.711Z,27.91
2023-12-30T08:49:18.767Z,27.85
2023-12-30T08:50:18.752Z,27.91
2023-12-30T08:51:18.792Z,27.87
2023-12-30T08:52:18.830Z,27.91
2023-12-30T08:53:18.799Z,27.89
2023-12-30T08:54:18.839Z,27.88
2023-12-30T08:55:18.953Z,27.89
2023-12-30T08:56:18.914Z,27.85
2023-12-30T08:57:18.951Z,27.86
2023-12-30T08:58:19.047Z,27.85
2023-12-30T08:59:19.067Z,27.88
2023-12-30T09:00:19.061Z,27.90
2023-12-30T09:01:19.259Z,27.90
2023-12-30T09:02:19.128Z,27.88
2023-12-30T09:03:20.332Z,27.84
2023-12-30T09:04:19.357Z,27.90
2023-12-30T09:05:19.295Z,27.90
2023-12-30T09:06:19.287Z,27.88
2023-12-30T09:07:19.388Z,27.82
2023-12-30T09:08:19.324Z,27.88
2023-12-30T09:09:19.344Z,27.90
2023-12-30T09:10:19.431Z,27.90
2023-12-30T09:11:19.417Z,27.88
2023-12-30T09:12:19.446Z,27.90
2023-12-30T09:13:19.513Z,27.85
2023-12-30T09:14:19.491Z,27.89
2023-12-30T09:15:19.541Z,27.82
2023-12-30T09:16:19.655Z,27.82
2023-12-30T09:17:19.599Z,27.76
2023-12-30T09:18:19.711Z,27.65
2023-12-30T09:19:19.705Z,27.70
2023-12-30T09:20:19.755Z,27.60
2023-12-30T09:21:19.633Z,27.58
2023-12-30T09:22:19.639Z,27.63
2023-12-30T09:23:19.656Z,27.55
2023-12-30T09:24:19.664Z,27.58
2023-12-30T09:25:19.685Z,27.57
2023-12-30T09:26:19.652Z,27.52
2023-12-30T09:27:19.682Z,27.51
2023-12-30T09:28:19.772Z,27.42
2023-12-30T09:29:19.696Z,27.42
2023-12-30T09:30:19.792Z,27.37
2023-12-30T09:31:19.847Z,27.34
2023-12-30T09:32:19.828Z,27.33
2023-12-30T09:33:19.988Z,27.23
2023-12-30T09:34:29.946Z,27.22
2023-12-30T09:35:21.079Z,27.18
2023-12-30T09:36:19.978Z,27.14
2023-12-30T09:37:20.069Z,27.09
2023-12-30T09:38:20.333Z,27.06
2023-12-30T09:39:19.980Z,26.99
2023-12-30T09:40:20.046Z,26.92
2023-12-30T09:41:20.044Z,26.83
2023-12-30T09:42:20.041Z,26.84
2023-12-30T09:43:20.015Z,26.76
2023-12-30T09:44:20.001Z,26.72
2023-12-30T09:45:20.011Z,26.60
2023-12-30T09:46:20.038Z,26.53
2023-12-30T09:47:20.068Z,26.44
2023-12-30T09:48:20.115Z,26.20
2023-12-30T09:49:20.110Z,26.01
2023-12-30T09:50:20.069Z,25.85
2023-12-30T09:51:20.095Z,25.66
2023-12-30T09:52:20.162Z,25.51
2023-12-30T09:53:20.268Z,25.29
2023-12-30T09:54:20.692Z,25.00
2023-12-30T09:55:20.337Z,24.82
2023-12-30T09:56:20.351Z,24.63
2023-12-30T09:57:20.381Z,24.38
2023-12-30T09:58:20.460Z,24.13
2023-12-30T09:59:20.421Z,24.02
2023-12-30T10:00:20.455Z,23.86
2023-12-30T10:01:20.511Z,23.82
2023-12-30T10:02:20.474Z,23.89
2023-12-30T10:03:20.765Z,23.98
2023-12-30T10:04:20.589Z,24.11
2023-12-30T10:05:20.545Z,24.12
2023-12-30T10:06:20.554Z,24.22
2023-12-30T10:07:20.607Z,24.16
2023-12-30T10:08:20.579Z,24.04
2023-12-30T10:09:20.579Z,24.04
2023-12-30T10:10:20.621Z,24.03
2023-12-30T10:11:20.598Z,24.00
2023-12-30T10:12:20.655Z,23.99
2023-12-30T10:13:20.741Z,23.99
2023-12-30T10:14:20.791Z,23.97
2023-12-30T10:15:20.892Z,24.02
2023-12-30T10:16:20.946Z,23.98
2023-12-30T10:17:20.987Z,23.92
2023-12-30T10:18:21.178Z,23.95
2023-12-30T10:19:21.178Z,23.90
2023-12-30T10:20:21.190Z,23.93
2023-12-30T10:21:21.276Z,23.94
2023-12-30T10:22:21.356Z,23.98
2023-12-30T10:23:21.381Z,24.06
2023-12-30T10:24:21.451Z,24.06
2023-12-30T10:25:21.547Z,24.19
2023-12-30T10:26:21.587Z,24.29
2023-12-30T10:27:21.716Z,24.31
2023-12-30T10:28:21.716Z,24.36
2023-12-30T10:29:21.704Z,24.49
2023-12-30T10:30:21.729Z,24.51
2023-12-30T10:31:23.374Z,24.62
2023-12-30T10:32:21.851Z,24.55
2023-12-30T10:33:21.813Z,24.66
2023-12-30T10:34:21.864Z,24.69
2023-12-30T10:35:23.607Z,24.71
2023-12-30T10:36:21.791Z,24.71
2023-12-30T10:37:21.865Z,24.79
2023-12-30T10:38:21.901Z,24.73
2023-12-30T10:39:21.954Z,24.77
2023-12-30T10:40:21.977Z,24.76
2023-12-30T10:41:21.964Z,24.77
2023-12-30T10:42:22.008Z,24.71
2023-12-30T10:43:22.061Z,24.75
2023-12-30T10:44:22.130Z,24.71
2023-12-30T10:45:22.200Z,24.72
2023-12-30T10:46:22.283Z,24.69
2023-12-30T10:47:22.363Z,24.71
2023-12-30T10:48:22.405Z,24.78
2023-12-30T10:49:22.609Z,24.75
2023-12-30T10:50:22.653Z,24.79
2023-12-30T10:51:22.609Z,24.82
2023-12-30T10:52:22.722Z,24.86
2023-12-30T10:53:22.726Z,24.90
2023-12-30T10:54:22.820Z,24.94
2023-12-30T10:55:22.907Z,24.96
2023-12-30T10:56:22.947Z,25.02
2023-12-30T10:57:22.971Z,25.03
2023-12-30T10:58:23.132Z,25.07
2023-12-30T10:59:23.096Z,25.11
2023-12-30T11:00:23.212Z,25.11
2023-12-30T11:01:23.342Z,25.12
2023-12-30T11:02:23.278Z,25.06
2023-12-30T11:03:23.336Z,24.98
2023-12-30T11:04:23.474Z,24.85
2023-12-30T11:05:23.605Z,24.64
2023-12-30T11:06:23.636Z,24.45
2023-12-30T11:07:23.592Z,24.34
2023-12-30T11:08:23.612Z,24.17
2023-12-30T11:09:23.632Z,24.12
2023-12-30T11:10:23.791Z,24.06
2023-12-30T11:11:23.710Z,24.04
2023-12-30T11:12:23.722Z,23.98
2023-12-30T11:13:23.729Z,23.94
2023-12-30T11:14:23.728Z,23.90
2023-12-30T11:15:23.925Z,23.96
2023-12-30T11:16:23.871Z,23.96
2023-12-30T11:17:24.077Z,23.97
2023-12-30T11:18:23.974Z,24.01
2023-12-30T11:19:24.020Z,24.06
2023-12-30T11:20:24.022Z,24.06
2023-12-30T11:21:24.061Z,24.15
2023-12-30T11:22:24.268Z,24.15
2023-12-30T11:23:24.116Z,24.21
2023-12-30T11:24:24.143Z,24.23
2023-12-30T11:25:24.285Z,24.32
2023-12-30T11:26:24.165Z,24.36
2023-12-30T11:27:24.088Z,24.40
2023-12-30T11:28:24.173Z,24.40
2023-12-30T11:29:24.166Z,24.45
2023-12-30T11:30:24.185Z,24.46
2023-12-30T11:31:24.157Z,24.49
2023-12-30T11:32:24.297Z,24.52
2023-12-30T11:33:24.232Z,24.46
2023-12-30T11:34:24.229Z,24.51
2023-12-30T11:35:24.227Z,24.55
2023-12-30T11:36:24.216Z,24.54
2023-12-30T11:37:24.302Z,24.52
2023-12-30T11:38:24.249Z,24.55
2023-12-30T11:39:24.365Z,24.49
2023-12-30T11:40:24.352Z,24.48
2023-12-30T11:41:24.299Z,24.47
2023-12-30T11:42:33.860Z,24.43
2023-12-30T11:43:25.349Z,24.43
2023-12-30T11:44:24.322Z,24.40
2023-12-30T11:45:24.323Z,24.50
2023-12-30T11:46:24.359Z,24.56
2023-12-30T11:47:24.359Z,24.58
2023-12-30T11:48:24.491Z,24.60
2023-12-30T11:49:24.726Z,24.69
2023-12-30T11:50:24.340Z,24.67
2023-12-30T11:51:24.364Z,24.67
2023-12-30T11:52:24.385Z,24.63
2023-12-30T11:53:24.317Z,24.56
2023-12-30T11:54:24.326Z,24.51
2023-12-30T11:55:24.366Z,24.49
2023-12-30T11:56:24.323Z,24.51
2023-12-30T11:57:24.328Z,24.54
2023-12-30T11:58:24.468Z,24.51
2023-12-30T11:59:24.327Z,24.53
2023-12-30T12:00:24.325Z,24.53
2023-12-30T12:01:24.430Z,24.51
2023-12-30T12:02:24.335Z,24.58
2023-12-30T12:03:24.333Z,24.60
2023-12-30T12:04:24.418Z,24.62
2023-12-30T12:05:24.451Z,24.64
2023-12-30T12:06:24.510Z,24.67
2023-12-30T12:07:24.593Z,24.71
2023-12-30T12:08:24.619Z,24.73
2023-12-30T12:09:24.682Z,24.77
2023-12-30T12:10:24.796Z,24.79
2023-12-30T12:11:24.801Z,24.79
2023-12-30T12:12:24.912Z,24.83
2023-12-30T12:13:24.941Z,24.92
2023-12-30T12:14:25.149Z,24.89
2023-12-30T12:15:25.027Z,24.95
2023-12-30T12:16:25.089Z,24.96
2023-12-30T12:17:25.138Z,24.99
2023-12-30T12:18:25.197Z,25.00
2023-12-30T12:19:25.184Z,25.11
2023-12-30T12:20:25.191Z,25.06
2023-12-30T12:21:25.186Z,25.07
2023-12-30T12:22:25.237Z,25.12
2023-12-30T12:23:25.246Z,25.13
2023-12-30T12:24:25.225Z,25.09
2023-12-30T12:25:25.305Z,25.16
2023-12-30T12:26:25.278Z,25.20
2023-12-30T12:27:25.304Z,25.16
2023-12-30T12:28:25.427Z,25.16
2023-12-30T12:29:25.402Z,25.18
2023-12-30T12:30:25.481Z,25.20
2023-12-30T12:31:25.502Z,25.23
2023-12-30T12:32:25.613Z,25.21
2023-12-30T12:33:25.744Z,25.18
2023-12-30T12:34:25.923Z,25.18
2023-12-30T12:35:25.751Z,25.20
2023-12-30T12:36:25.801Z,25.21
2023-12-30T12:37:25.909Z,25.23
2023-12-30T12:38:25.957Z,25.20
2023-12-30T12:39:25.928Z,25.23
2023-12-30T12:40:26.069Z,25.18
2023-12-30T12:41:26.073Z,25.23
2023-12-30T12:42:30.545Z,25.29
2023-12-30T12:43:27.166Z,25.30
2023-12-30T12:44:26.117Z,25.34
2023-12-30T12:45:27.878Z,25.30
2023-12-30T12:46:26.175Z,25.37
2023-12-30T12:47:26.406Z,25.33
2023-12-30T12:48:26.241Z,25.28
2023-12-30T12:49:26.190Z,25.32
2023-12-30T12:50:26.117Z,25.31
2023-12-30T12:51:27.389Z,25.22
2023-12-30T12:52:26.186Z,25.28
2023-12-30T12:53:26.126Z,25.25